sensor_id;sensor_type;location;lat;lon;timestamp;P1;durP1;ratioP1;P2;durP2;ratioP2
48034;SDS011;33812;46.480;6.834;2023-03-11T00:03:11;17.45;;;3.17;;
48034;SDS011;33812;46.480;6.834;2023-03-11T00:07:14;10.85;;;2.15;;
48034;SDS011;33812;46.480;6.834;2023-03-11T00:11:16;9.57;;;1.90;;
48034;SDS011;33812;46.480;6.834;2023-03-11T00:15:18;8.95;;;1.75;;
48034;SDS011;33812;46.480;6.834;2023-03-11T00:19:22;11.77;;;2.35;;
48034;SDS011;33812;46.480;6.834;2023-03-11T00:23:23;10.77;;;2.05;;
48034;SDS011;33812;46.480;6.834;2023-03-11T00:27:26;11.10;;;2.25;;
48034;SDS011;33812;46.480;6.834;2023-03-11T00:31:28;9.73;;;1.88;;
48034;SDS011;33812;46.480;6.834;2023-03-11T00:35:32;11.68;;;2.13;;
48034;SDS011;33812;46.480;6.834;2023-03-11T00:39:34;8.03;;;1.67;;
48034;SDS011;33812;46.480;6.834;2023-03-11T00:43:36;10.13;;;1.92;;
48034;SDS011;33812;46.480;6.834;2023-03-11T00:47:38;10.00;;;1.92;;
48034;SDS011;33812;46.480;6.834;2023-03-11T00:51:41;12.48;;;2.25;;
48034;SDS011;33812;46.480;6.834;2023-03-11T00:55:43;12.70;;;2.33;;
48034;SDS011;33812;46.480;6.834;2023-03-11T00:59:45;7.82;;;1.48;;
48034;SDS011;33812;46.480;6.834;2023-03-11T01:03:47;9.25;;;1.90;;
48034;SDS011;33812;46.480;6.834;2023-03-11T01:07:50;10.57;;;2.08;;
48034;SDS011;33812;46.480;6.834;2023-03-11T01:11:52;10.52;;;2.15;;
48034;SDS011;33812;46.480;6.834;2023-03-11T01:15:54;8.65;;;1.58;;
48034;SDS011;33812;46.480;6.834;2023-03-11T01:19:56;12.02;;;2.33;;
48034;SDS011;33812;46.480;6.834;2023-03-11T01:24:01;11.75;;;2.38;;
48034;SDS011;33812;46.480;6.834;2023-03-11T01:28:03;9.65;;;1.83;;
48034;SDS011;33812;46.480;6.834;2023-03-11T01:32:05;9.27;;;1.70;;
48034;SDS011;33812;46.480;6.834;2023-03-11T01:36:08;11.77;;;2.22;;
48034;SDS011;33812;46.480;6.834;2023-03-11T01:40:13;11.45;;;2.20;;
48034;SDS011;33812;46.480;6.834;2023-03-11T01:44:17;16.63;;;2.92;;
48034;SDS011;33812;46.480;6.834;2023-03-11T01:48:20;12.80;;;2.33;;
48034;SDS011;33812;46.480;6.834;2023-03-11T01:52:22;10.65;;;1.92;;
48034;SDS011;33812;46.480;6.834;2023-03-11T01:56:25;12.63;;;2.10;;
48034;SDS011;33812;46.480;6.834;2023-03-11T02:00:28;9.07;;;1.77;;
48034;SDS011;33812;46.480;6.834;2023-03-11T02:04:30;16.63;;;3.00;;
48034;SDS011;33812;46.480;6.834;2023-03-11T02:08:35;10.10;;;1.83;;
48034;SDS011;33812;46.480;6.834;2023-03-11T02:12:39;11.13;;;1.92;;
48034;SDS011;33812;46.480;6.834;2023-03-11T02:16:42;14.60;;;2.72;;
48034;SDS011;33812;46.480;6.834;2023-03-11T02:20:46;11.23;;;2.25;;
48034;SDS011;33812;46.480;6.834;2023-03-11T02:24:54;10.88;;;1.95;;
48034;SDS011;33812;46.480;6.834;2023-03-11T02:29:02;10.60;;;1.83;;
48034;SDS011;33812;46.480;6.834;2023-03-11T02:33:07;11.60;;;2.15;;
48034;SDS011;33812;46.480;6.834;2023-03-11T02:37:10;10.95;;;1.95;;
48034;SDS011;33812;46.480;6.834;2023-03-11T02:41:13;10.10;;;1.95;;
48034;SDS011;33812;46.480;6.834;2023-03-11T02:45:17;9.02;;;1.77;;
48034;SDS011;33812;46.480;6.834;2023-03-11T02:49:22;10.18;;;2.03;;
48034;SDS011;33812;46.480;6.834;2023-03-11T02:53:25;9.23;;;1.83;;
48034;SDS011;33812;46.480;6.834;2023-03-11T02:57:30;13.70;;;2.50;;
48034;SDS011;33812;46.480;6.834;2023-03-11T03:01:33;10.27;;;1.98;;
48034;SDS011;33812;46.480;6.834;2023-03-11T03:05:35;10.48;;;1.92;;
48034;SDS011;33812;46.480;6.834;2023-03-11T03:09:38;12.23;;;2.33;;
48034;SDS011;33812;46.480;6.834;2023-03-11T03:13:40;9.45;;;1.75;;
48034;SDS011;33812;46.480;6.834;2023-03-11T03:17:43;5.35;;;1.15;;
48034;SDS011;33812;46.480;6.834;2023-03-11T03:21:45;9.05;;;1.67;;
48034;SDS011;33812;46.480;6.834;2023-03-11T03:25:47;10.43;;;1.90;;
48034;SDS011;33812;46.480;6.834;2023-03-11T03:29:49;13.48;;;2.53;;
48034;SDS011;33812;46.480;6.834;2023-03-11T03:33:52;11.27;;;1.85;;
48034;SDS011;33812;46.480;6.834;2023-03-11T03:37:54;10.85;;;1.92;;
48034;SDS011;33812;46.480;6.834;2023-03-11T03:41:57;11.20;;;2.15;;
48034;SDS011;33812;46.480;6.834;2023-03-11T03:46:00;10.93;;;2.10;;
48034;SDS011;33812;46.480;6.834;2023-03-11T03:50:07;12.17;;;2.30;;
48034;SDS011;33812;46.480;6.834;2023-03-11T03:54:12;12.95;;;2.50;;
48034;SDS011;33812;46.480;6.834;2023-03-11T03:58:13;10.20;;;2.05;;
48034;SDS011;33812;46.480;6.834;2023-03-11T04:02:15;8.63;;;1.75;;
48034;SDS011;33812;46.480;6.834;2023-03-11T04:06:19;6.90;;;1.83;;
48034;SDS011;33812;46.480;6.834;2023-03-11T04:14:24;9.85;;;1.92;;
48034;SDS011;33812;46.480;6.834;2023-03-11T04:18:25;9.05;;;1.95;;
48034;SDS011;33812;46.480;6.834;2023-03-11T04:22:29;13.70;;;2.85;;
48034;SDS011;33812;46.480;6.834;2023-03-11T04:26:30;8.38;;;1.70;;
48034;SDS011;33812;46.480;6.834;2023-03-11T04:30:32;8.18;;;1.65;;
48034;SDS011;33812;46.480;6.834;2023-03-11T04:34:34;10.35;;;2.15;;
48034;SDS011;33812;46.480;6.834;2023-03-11T04:38:37;17.20;;;3.00;;
48034;SDS011;33812;46.480;6.834;2023-03-11T04:42:39;11.07;;;2.25;;
48034;SDS011;33812;46.480;6.834;2023-03-11T04:46:41;9.35;;;1.98;;
48034;SDS011;33812;46.480;6.834;2023-03-11T04:50:42;10.20;;;2.28;;
48034;SDS011;33812;46.480;6.834;2023-03-11T04:54:46;10.00;;;2.25;;
48034;SDS011;33812;46.480;6.834;2023-03-11T04:58:48;8.15;;;1.80;;
48034;SDS011;33812;46.480;6.834;2023-03-11T05:02:49;10.10;;;2.03;;
48034;SDS011;33812;46.480;6.834;2023-03-11T05:06:51;10.50;;;2.35;;
48034;SDS011;33812;46.480;6.834;2023-03-11T05:10:54;12.98;;;2.63;;
48034;SDS011;33812;46.480;6.834;2023-03-11T05:14:56;9.45;;;2.30;;
48034;SDS011;33812;46.480;6.834;2023-03-11T05:18:58;5.43;;;1.30;;
48034;SDS011;33812;46.480;6.834;2023-03-11T05:23:00;8.48;;;1.70;;
48034;SDS011;33812;46.480;6.834;2023-03-11T05:27:07;5.00;;;1.10;;
48034;SDS011;33812;46.480;6.834;2023-03-11T05:31:09;11.68;;;2.47;;
48034;SDS011;33812;46.480;6.834;2023-03-11T05:35:11;3.67;;;0.90;;
48034;SDS011;33812;46.480;6.834;2023-03-11T05:39:13;4.30;;;1.10;;
48034;SDS011;33812;46.480;6.834;2023-03-11T05:43:16;1.27;;;0.50;;
48034;SDS011;33812;46.480;6.834;2023-03-11T05:47:19;1.50;;;0.52;;
48034;SDS011;33812;46.480;6.834;2023-03-11T05:51:21;2.00;;;0.57;;
48034;SDS011;33812;46.480;6.834;2023-03-11T05:55:22;6.53;;;1.30;;
48034;SDS011;33812;46.480;6.834;2023-03-11T05:59:26;2.58;;;0.77;;
48034;SDS011;33812;46.480;6.834;2023-03-11T06:03:27;3.88;;;0.90;;
48034;SDS011;33812;46.480;6.834;2023-03-11T06:07:29;10.63;;;1.95;;
48034;SDS011;33812;46.480;6.834;2023-03-11T06:11:31;3.10;;;0.73;;
48034;SDS011;33812;46.480;6.834;2023-03-11T06:15:34;4.43;;;1.33;;
48034;SDS011;33812;46.480;6.834;2023-03-11T06:19:36;2.97;;;0.75;;
48034;SDS011;33812;46.480;6.834;2023-03-11T06:23:38;2.50;;;0.60;;
48034;SDS011;33812;46.480;6.834;2023-03-11T06:27:40;4.07;;;0.93;;
48034;SDS011;33812;46.480;6.834;2023-03-11T06:31:46;6.93;;;1.10;;
48034;SDS011;33812;46.480;6.834;2023-03-11T06:35:54;1.90;;;0.70;;
48034;SDS011;33812;46.480;6.834;2023-03-11T06:39:59;7.55;;;0.80;;
48034;SDS011;33812;46.480;6.834;2023-03-11T06:44:00;5.82;;;1.00;;
48034;SDS011;33812;46.480;6.834;2023-03-11T06:48:04;9.40;;;1.10;;
48034;SDS011;33812;46.480;6.834;2023-03-11T06:52:07;2.53;;;0.55;;
48034;SDS011;33812;46.480;6.834;2023-03-11T06:56:10;10.38;;;1.15;;
48034;SDS011;33812;46.480;6.834;2023-03-11T07:00:13;3.85;;;0.98;;
48034;SDS011;33812;46.480;6.834;2023-03-11T07:04:17;5.22;;;1.10;;
48034;SDS011;33812;46.480;6.834;2023-03-11T07:08:18;5.60;;;1.30;;
48034;SDS011;33812;46.480;6.834;2023-03-11T07:12:20;10.65;;;1.10;;
48034;SDS011;33812;46.480;6.834;2023-03-11T07:16:24;10.07;;;1.67;;
48034;SDS011;33812;46.480;6.834;2023-03-11T07:20:29;15.13;;;1.92;;
48034;SDS011;33812;46.480;6.834;2023-03-11T07:24:30;15.35;;;2.22;;
48034;SDS011;33812;46.480;6.834;2023-03-11T07:28:32;11.98;;;2.00;;
48034;SDS011;33812;46.480;6.834;2023-03-11T07:32:36;13.40;;;1.77;;
48034;SDS011;33812;46.480;6.834;2023-03-11T07:36:39;6.53;;;1.65;;
48034;SDS011;33812;46.480;6.834;2023-03-11T07:40:42;14.97;;;2.97;;
48034;SDS011;33812;46.480;6.834;2023-03-11T07:44:44;3.75;;;1.05;;
48034;SDS011;33812;46.480;6.834;2023-03-11T07:48:46;10.43;;;1.00;;
48034;SDS011;33812;46.480;6.834;2023-03-11T07:52:49;16.98;;;1.33;;
48034;SDS011;33812;46.480;6.834;2023-03-11T07:56:50;9.93;;;1.50;;
48034;SDS011;33812;46.480;6.834;2023-03-11T08:00:52;5.72;;;1.20;;
48034;SDS011;33812;46.480;6.834;2023-03-11T08:04:56;7.40;;;1.52;;
48034;SDS011;33812;46.480;6.834;2023-03-11T08:08:59;18.33;;;2.95;;
48034;SDS011;33812;46.480;6.834;2023-03-11T08:13:03;6.60;;;1.67;;
48034;SDS011;33812;46.480;6.834;2023-03-11T08:17:06;5.57;;;1.42;;
48034;SDS011;33812;46.480;6.834;2023-03-11T08:21:10;11.65;;;1.52;;
48034;SDS011;33812;46.480;6.834;2023-03-11T08:25:16;6.40;;;1.52;;
48034;SDS011;33812;46.480;6.834;2023-03-11T08:29:18;16.97;;;1.60;;
48034;SDS011;33812;46.480;6.834;2023-03-11T08:33:20;6.20;;;1.13;;
48034;SDS011;33812;46.480;6.834;2023-03-11T08:37:22;4.97;;;1.17;;
48034;SDS011;33812;46.480;6.834;2023-03-11T08:41:26;10.32;;;1.38;;
48034;SDS011;33812;46.480;6.834;2023-03-11T08:45:28;6.35;;;1.05;;
48034;SDS011;33812;46.480;6.834;2023-03-11T08:49:31;4.75;;;0.77;;
48034;SDS011;33812;46.480;6.834;2023-03-11T08:53:33;4.63;;;1.30;;
48034;SDS011;33812;46.480;6.834;2023-03-11T08:57:36;3.80;;;0.95;;
48034;SDS011;33812;46.480;6.834;2023-03-11T09:01:39;5.05;;;0.98;;
48034;SDS011;33812;46.480;6.834;2023-03-11T09:05:41;5.53;;;1.02;;
48034;SDS011;33812;46.480;6.834;2023-03-11T09:09:43;2.65;;;0.70;;
48034;SDS011;33812;46.480;6.834;2023-03-11T09:13:46;4.78;;;1.20;;
48034;SDS011;33812;46.480;6.834;2023-03-11T09:17:48;12.05;;;1.58;;
48034;SDS011;33812;46.480;6.834;2023-03-11T09:21:51;4.57;;;1.02;;
48034;SDS011;33812;46.480;6.834;2023-03-11T09:25:53;1.95;;;0.70;;
48034;SDS011;33812;46.480;6.834;2023-03-11T09:29:56;6.97;;;0.60;;
48034;SDS011;33812;46.480;6.834;2023-03-11T09:33:57;4.65;;;1.20;;
48034;SDS011;33812;46.480;6.834;2023-03-11T09:37:59;5.75;;;1.15;;
48034;SDS011;33812;46.480;6.834;2023-03-11T09:42:01;11.48;;;2.10;;
48034;SDS011;33812;46.480;6.834;2023-03-11T09:46:12;10.60;;;1.48;;
48034;SDS011;33812;46.480;6.834;2023-03-11T09:50:28;8.93;;;1.25;;
48034;SDS011;33812;46.480;6.834;2023-03-11T09:54:33;6.13;;;1.35;;
48034;SDS011;33812;46.480;6.834;2023-03-11T09:58:40;11.23;;;1.85;;
48034;SDS011;33812;46.480;6.834;2023-03-11T10:06:47;7.25;;;1.73;;
48034;SDS011;33812;46.480;6.834;2023-03-11T10:10:52;33.53;;;2.97;;
48034;SDS011;33812;46.480;6.834;2023-03-11T10:15:07;13.15;;;1.75;;
48034;SDS011;33812;46.480;6.834;2023-03-11T10:19:20;8.75;;;1.48;;
48034;SDS011;33812;46.480;6.834;2023-03-11T10:23:32;8.68;;;1.38;;
48034;SDS011;33812;46.480;6.834;2023-03-11T10:27:47;9.30;;;1.33;;
48034;SDS011;33812;46.480;6.834;2023-03-11T10:31:52;8.98;;;1.20;;
48034;SDS011;33812;46.480;6.834;2023-03-11T10:36:00;18.35;;;3.95;;
48034;SDS011;33812;46.480;6.834;2023-03-11T10:40:09;6.18;;;1.33;;
48034;SDS011;33812;46.480;6.834;2023-03-11T10:44:23;3.88;;;1.08;;
48034;SDS011;33812;46.480;6.834;2023-03-11T10:48:28;6.78;;;1.65;;
48034;SDS011;33812;46.480;6.834;2023-03-11T10:52:32;3.83;;;1.42;;
48034;SDS011;33812;46.480;6.834;2023-03-11T10:56:42;14.70;;;3.50;;
48034;SDS011;33812;46.480;6.834;2023-03-11T11:05:22;8.48;;;2.65;;
48034;SDS011;33812;46.480;6.834;2023-03-11T11:09:30;16.63;;;6.63;;
48034;SDS011;33812;46.480;6.834;2023-03-11T11:13:36;19.00;;;4.68;;
48034;SDS011;33812;46.480;6.834;2023-03-11T11:17:37;11.60;;;4.07;;
48034;SDS011;33812;46.480;6.834;2023-03-11T11:21:41;15.98;;;4.15;;
48034;SDS011;33812;46.480;6.834;2023-03-11T11:25:54;10.88;;;2.60;;
48034;SDS011;33812;46.480;6.834;2023-03-11T11:30:09;6.45;;;2.88;;
48034;SDS011;33812;46.480;6.834;2023-03-11T11:34:25;9.88;;;2.30;;
48034;SDS011;33812;46.480;6.834;2023-03-11T11:38:31;19.38;;;2.70;;
48034;SDS011;33812;46.480;6.834;2023-03-11T11:42:40;22.60;;;3.60;;
48034;SDS011;33812;46.480;6.834;2023-03-11T11:46:48;9.20;;;2.83;;
48034;SDS011;33812;46.480;6.834;2023-03-11T11:50:56;12.10;;;2.10;;
48034;SDS011;33812;46.480;6.834;2023-03-11T11:55:04;12.70;;;2.17;;
48034;SDS011;33812;46.480;6.834;2023-03-11T11:59:16;14.95;;;3.60;;
48034;SDS011;33812;46.480;6.834;2023-03-11T12:12:13;12.45;;;2.53;;
48034;SDS011;33812;46.480;6.834;2023-03-11T12:16:33;10.85;;;2.42;;
48034;SDS011;33812;46.480;6.834;2023-03-11T12:20:42;9.02;;;2.33;;
48034;SDS011;33812;46.480;6.834;2023-03-11T12:24:52;8.48;;;1.80;;
48034;SDS011;33812;46.480;6.834;2023-03-11T12:29:10;19.83;;;4.03;;
48034;SDS011;33812;46.480;6.834;2023-03-11T12:33:21;8.95;;;1.70;;
48034;SDS011;33812;46.480;6.834;2023-03-11T12:37:30;5.10;;;1.55;;
48034;SDS011;33812;46.480;6.834;2023-03-11T12:41:33;12.20;;;2.30;;
48034;SDS011;33812;46.480;6.834;2023-03-11T12:45:46;5.47;;;1.45;;
48034;SDS011;33812;46.480;6.834;2023-03-11T12:49:51;4.15;;;1.20;;
48034;SDS011;33812;46.480;6.834;2023-03-11T12:53:54;6.10;;;1.23;;
48034;SDS011;33812;46.480;6.834;2023-03-11T12:57:59;11.18;;;2.30;;
48034;SDS011;33812;46.480;6.834;2023-03-11T13:02:11;6.53;;;1.45;;
48034;SDS011;33812;46.480;6.834;2023-03-11T13:06:39;11.80;;;1.83;;
48034;SDS011;33812;46.480;6.834;2023-03-11T13:11:32;11.90;;;2.13;;
48034;SDS011;33812;46.480;6.834;2023-03-11T13:15:38;2.45;;;0.60;;
48034;SDS011;33812;46.480;6.834;2023-03-11T13:19:49;11.35;;;1.38;;
48034;SDS011;33812;46.480;6.834;2023-03-11T13:23:56;6.97;;;1.42;;
48034;SDS011;33812;46.480;6.834;2023-03-11T13:28:53;6.65;;;1.20;;
48034;SDS011;33812;46.480;6.834;2023-03-11T13:33:12;6.63;;;1.05;;
48034;SDS011;33812;46.480;6.834;2023-03-11T13:37:23;20.77;;;3.28;;
48034;SDS011;33812;46.480;6.834;2023-03-11T13:41:36;18.05;;;3.63;;
48034;SDS011;33812;46.480;6.834;2023-03-11T13:45:46;9.85;;;1.98;;
48034;SDS011;33812;46.480;6.834;2023-03-11T13:49:57;9.27;;;1.40;;
48034;SDS011;33812;46.480;6.834;2023-03-11T13:54:03;15.02;;;3.13;;
48034;SDS011;33812;46.480;6.834;2023-03-11T13:58:23;11.65;;;1.13;;
48034;SDS011;33812;46.480;6.834;2023-03-11T14:02:30;3.22;;;0.85;;
48034;SDS011;33812;46.480;6.834;2023-03-11T14:06:33;14.73;;;1.42;;
48034;SDS011;33812;46.480;6.834;2023-03-11T14:10:35;7.55;;;1.10;;
48034;SDS011;33812;46.480;6.834;2023-03-11T14:14:41;7.22;;;1.15;;
48034;SDS011;33812;46.480;6.834;2023-03-11T14:18:59;8.27;;;1.48;;
48034;SDS011;33812;46.480;6.834;2023-03-11T14:23:03;7.53;;;1.13;;
48034;SDS011;33812;46.480;6.834;2023-03-11T14:27:06;15.18;;;3.47;;
48034;SDS011;33812;46.480;6.834;2023-03-11T14:31:20;12.43;;;1.45;;
48034;SDS011;33812;46.480;6.834;2023-03-11T14:35:31;7.47;;;1.15;;
48034;SDS011;33812;46.480;6.834;2023-03-11T14:39:35;3.08;;;0.93;;
48034;SDS011;33812;46.480;6.834;2023-03-11T14:43:39;4.75;;;1.35;;
48034;SDS011;33812;46.480;6.834;2023-03-11T14:47:45;9.38;;;0.75;;
48034;SDS011;33812;46.480;6.834;2023-03-11T14:51:53;7.90;;;1.73;;
48034;SDS011;33812;46.480;6.834;2023-03-11T14:55:58;7.00;;;1.13;;
48034;SDS011;33812;46.480;6.834;2023-03-11T15:00:02;11.57;;;2.28;;
48034;SDS011;33812;46.480;6.834;2023-03-11T15:04:08;3.58;;;0.90;;
48034;SDS011;33812;46.480;6.834;2023-03-11T15:08:14;8.20;;;1.37;;
48034;SDS011;33812;46.480;6.834;2023-03-11T15:12:31;13.77;;;1.50;;
48034;SDS011;33812;46.480;6.834;2023-03-11T15:16:35;7.88;;;0.82;;
48034;SDS011;33812;46.480;6.834;2023-03-11T15:20:37;1.17;;;0.60;;
48034;SDS011;33812;46.480;6.834;2023-03-11T15:24:41;1.08;;;0.50;;
48034;SDS011;33812;46.480;6.834;2023-03-11T15:28:43;3.75;;;1.00;;
48034;SDS011;33812;46.480;6.834;2023-03-11T15:32:44;6.53;;;1.08;;
48034;SDS011;33812;46.480;6.834;2023-03-11T15:36:58;5.45;;;0.57;;
48034;SDS011;33812;46.480;6.834;2023-03-11T15:41:10;7.63;;;1.33;;
48034;SDS011;33812;46.480;6.834;2023-03-11T15:45:13;6.70;;;1.67;;
48034;SDS011;33812;46.480;6.834;2023-03-11T15:53:22;7.55;;;1.58;;
48034;SDS011;33812;46.480;6.834;2023-03-11T15:57:27;3.50;;;0.88;;
48034;SDS011;33812;46.480;6.834;2023-03-11T16:05:33;6.72;;;1.00;;
48034;SDS011;33812;46.480;6.834;2023-03-11T16:09:35;5.30;;;1.20;;
48034;SDS011;33812;46.480;6.834;2023-03-11T16:13:38;12.70;;;2.22;;
48034;SDS011;33812;46.480;6.834;2023-03-11T16:17:39;5.60;;;1.33;;
48034;SDS011;33812;46.480;6.834;2023-03-11T16:21:44;9.25;;;1.85;;
48034;SDS011;33812;46.480;6.834;2023-03-11T16:25:49;19.63;;;2.60;;
48034;SDS011;33812;46.480;6.834;2023-03-11T16:29:54;12.75;;;1.80;;
48034;SDS011;33812;46.480;6.834;2023-03-11T16:33:56;13.00;;;2.30;;
48034;SDS011;33812;46.480;6.834;2023-03-11T16:37:58;16.58;;;2.53;;
48034;SDS011;33812;46.480;6.834;2023-03-11T16:42:04;13.13;;;2.37;;
48034;SDS011;33812;46.480;6.834;2023-03-11T16:46:07;18.35;;;2.75;;
48034;SDS011;33812;46.480;6.834;2023-03-11T16:50:10;11.00;;;2.38;;
48034;SDS011;33812;46.480;6.834;2023-03-11T16:54:12;15.77;;;1.60;;
48034;SDS011;33812;46.480;6.834;2023-03-11T16:58:16;14.25;;;2.15;;
48034;SDS011;33812;46.480;6.834;2023-03-11T17:02:19;15.23;;;2.20;;
48034;SDS011;33812;46.480;6.834;2023-03-11T17:06:21;16.38;;;3.25;;
48034;SDS011;33812;46.480;6.834;2023-03-11T17:10:23;10.82;;;2.13;;
48034;SDS011;33812;46.480;6.834;2023-03-11T17:14:25;13.40;;;1.83;;
48034;SDS011;33812;46.480;6.834;2023-03-11T17:18:29;8.63;;;2.03;;
48034;SDS011;33812;46.480;6.834;2023-03-11T17:22:31;15.40;;;2.63;;
48034;SDS011;33812;46.480;6.834;2023-03-11T17:26:32;13.30;;;2.85;;
48034;SDS011;33812;46.480;6.834;2023-03-11T17:30:34;6.45;;;1.20;;
48034;SDS011;33812;46.480;6.834;2023-03-11T17:34:41;7.03;;;1.30;;
48034;SDS011;33812;46.480;6.834;2023-03-11T17:38:50;2.80;;;0.90;;
48034;SDS011;33812;46.480;6.834;2023-03-11T17:42:52;7.63;;;1.58;;
48034;SDS011;33812;46.480;6.834;2023-03-11T17:46:54;7.63;;;1.30;;
48034;SDS011;33812;46.480;6.834;2023-03-11T17:50:57;7.15;;;1.60;;
48034;SDS011;33812;46.480;6.834;2023-03-11T17:54:59;9.60;;;2.55;;
48034;SDS011;33812;46.480;6.834;2023-03-11T17:59:01;5.47;;;1.63;;
48034;SDS011;33812;46.480;6.834;2023-03-11T18:03:03;6.57;;;1.75;;
48034;SDS011;33812;46.480;6.834;2023-03-11T18:07:06;17.25;;;3.35;;
48034;SDS011;33812;46.480;6.834;2023-03-11T18:11:10;20.13;;;4.00;;
48034;SDS011;33812;46.480;6.834;2023-03-11T18:15:13;13.95;;;4.38;;
48034;SDS011;33812;46.480;6.834;2023-03-11T18:19:18;16.30;;;3.00;;
48034;SDS011;33812;46.480;6.834;2023-03-11T18:23:21;22.92;;;11.82;;
48034;SDS011;33812;46.480;6.834;2023-03-11T18:27:22;19.45;;;5.90;;
48034;SDS011;33812;46.480;6.834;2023-03-11T18:31:25;9.43;;;3.00;;
48034;SDS011;33812;46.480;6.834;2023-03-11T18:35:28;4.82;;;2.03;;
48034;SDS011;33812;46.480;6.834;2023-03-11T18:39:31;6.30;;;2.40;;
48034;SDS011;33812;46.480;6.834;2023-03-11T18:43:33;6.35;;;2.33;;
48034;SDS011;33812;46.480;6.834;2023-03-11T18:47:34;7.32;;;2.10;;
48034;SDS011;33812;46.480;6.834;2023-03-11T18:51:36;17.80;;;3.60;;
48034;SDS011;33812;46.480;6.834;2023-03-11T18:55:40;3.53;;;1.50;;
48034;SDS011;33812;46.480;6.834;2023-03-11T18:59:42;10.52;;;1.63;;
48034;SDS011;33812;46.480;6.834;2023-03-11T19:03:44;14.77;;;3.22;;
48034;SDS011;33812;46.480;6.834;2023-03-11T19:07:49;243.23;;;114.45;;
48034;SDS011;33812;46.480;6.834;2023-03-11T19:11:52;238.32;;;111.20;;
48034;SDS011;33812;46.480;6.834;2023-03-11T19:15:57;240.00;;;112.50;;
48034;SDS011;33812;46.480;6.834;2023-03-11T19:20:00;218.40;;;103.75;;
48034;SDS011;33812;46.480;6.834;2023-03-11T19:24:13;189.90;;;89.43;;
48034;SDS011;33812;46.480;6.834;2023-03-11T19:28:18;204.38;;;91.85;;
48034;SDS011;33812;46.480;6.834;2023-03-11T19:32:21;177.10;;;77.97;;
48034;SDS011;33812;46.480;6.834;2023-03-11T19:36:23;173.52;;;82.45;;
48034;SDS011;33812;46.480;6.834;2023-03-11T19:44:36;163.18;;;77.40;;
48034;SDS011;33812;46.480;6.834;2023-03-11T19:48:38;29.52;;;13.95;;
48034;SDS011;33812;46.480;6.834;2023-03-11T19:52:40;22.38;;;12.25;;
48034;SDS011;33812;46.480;6.834;2023-03-11T19:56:41;32.13;;;11.00;;
48034;SDS011;33812;46.480;6.834;2023-03-11T20:00:48;29.80;;;13.18;;
48034;SDS011;33812;46.480;6.834;2023-03-11T20:04:50;36.47;;;14.88;;
48034;SDS011;33812;46.480;6.834;2023-03-11T20:08:52;34.20;;;14.95;;
48034;SDS011;33812;46.480;6.834;2023-03-11T20:12:53;32.47;;;13.93;;
48034;SDS011;33812;46.480;6.834;2023-03-11T20:16:56;39.58;;;12.75;;
48034;SDS011;33812;46.480;6.834;2023-03-11T20:20:58;34.65;;;14.02;;
48034;SDS011;33812;46.480;6.834;2023-03-11T20:25:04;33.53;;;12.18;;
48034;SDS011;33812;46.480;6.834;2023-03-11T20:29:06;34.13;;;12.10;;
48034;SDS011;33812;46.480;6.834;2023-03-11T20:33:10;31.15;;;11.10;;
48034;SDS011;33812;46.480;6.834;2023-03-11T20:37:11;22.98;;;10.70;;
48034;SDS011;33812;46.480;6.834;2023-03-11T20:41:13;29.95;;;11.10;;
48034;SDS011;33812;46.480;6.834;2023-03-11T20:45:17;31.50;;;10.60;;
48034;SDS011;33812;46.480;6.834;2023-03-11T20:53:23;31.10;;;9.48;;
48034;SDS011;33812;46.480;6.834;2023-03-11T20:57:25;24.65;;;9.90;;
48034;SDS011;33812;46.480;6.834;2023-03-11T21:01:27;23.02;;;8.68;;
48034;SDS011;33812;46.480;6.834;2023-03-11T21:05:35;23.70;;;9.23;;
48034;SDS011;33812;46.480;6.834;2023-03-11T21:09:39;18.92;;;7.63;;
48034;SDS011;33812;46.480;6.834;2023-03-11T21:13:41;16.98;;;7.32;;
48034;SDS011;33812;46.480;6.834;2023-03-11T21:17:43;17.33;;;7.88;;
48034;SDS011;33812;46.480;6.834;2023-03-11T21:21:46;20.83;;;7.45;;
48034;SDS011;33812;46.480;6.834;2023-03-11T21:25:51;15.95;;;6.50;;
48034;SDS011;33812;46.480;6.834;2023-03-11T21:29:58;16.77;;;7.03;;
48034;SDS011;33812;46.480;6.834;2023-03-11T21:34:02;15.80;;;6.85;;
48034;SDS011;33812;46.480;6.834;2023-03-11T21:38:05;19.13;;;8.05;;
48034;SDS011;33812;46.480;6.834;2023-03-11T21:42:07;17.13;;;7.22;;
48034;SDS011;33812;46.480;6.834;2023-03-11T21:46:09;13.52;;;6.68;;
48034;SDS011;33812;46.480;6.834;2023-03-11T21:50:13;14.83;;;6.80;;
48034;SDS011;33812;46.480;6.834;2023-03-11T21:54:16;19.38;;;7.10;;
48034;SDS011;33812;46.480;6.834;2023-03-11T21:58:18;20.02;;;7.47;;
48034;SDS011;33812;46.480;6.834;2023-03-11T22:02:21;17.35;;;6.43;;
48034;SDS011;33812;46.480;6.834;2023-03-11T22:06:22;20.25;;;6.20;;
48034;SDS011;33812;46.480;6.834;2023-03-11T22:10:28;12.18;;;5.15;;
48034;SDS011;33812;46.480;6.834;2023-03-11T22:14:31;9.70;;;4.72;;
48034;SDS011;33812;46.480;6.834;2023-03-11T22:18:32;25.75;;;6.72;;
48034;SDS011;33812;46.480;6.834;2023-03-11T22:22:34;16.15;;;5.20;;
48034;SDS011;33812;46.480;6.834;2023-03-11T22:26:38;14.60;;;5.45;;
48034;SDS011;33812;46.480;6.834;2023-03-11T22:30:40;18.25;;;5.57;;
48034;SDS011;33812;46.480;6.834;2023-03-11T22:34:42;15.82;;;5.45;;
48034;SDS011;33812;46.480;6.834;2023-03-11T22:38:44;15.10;;;5.10;;
48034;SDS011;33812;46.480;6.834;2023-03-11T22:42:47;12.75;;;4.85;;
48034;SDS011;33812;46.480;6.834;2023-03-11T22:51:16;13.57;;;4.93;;
48034;SDS011;33812;46.480;6.834;2023-03-11T22:55:20;20.05;;;5.60;;
48034;SDS011;33812;46.480;6.834;2023-03-11T22:59:24;15.18;;;4.50;;
48034;SDS011;33812;46.480;6.834;2023-03-11T23:03:29;15.73;;;5.20;;
48034;SDS011;33812;46.480;6.834;2023-03-11T23:07:31;17.45;;;5.00;;
48034;SDS011;33812;46.480;6.834;2023-03-11T23:11:33;13.75;;;5.03;;
48034;SDS011;33812;46.480;6.834;2023-03-11T23:15:39;12.60;;;4.68;;
48034;SDS011;33812;46.480;6.834;2023-03-11T23:19:42;14.35;;;4.65;;
48034;SDS011;33812;46.480;6.834;2023-03-11T23:23:45;19.60;;;6.25;;
48034;SDS011;33812;46.480;6.834;2023-03-11T23:27:48;15.70;;;5.18;;
48034;SDS011;33812;46.480;6.834;2023-03-11T23:31:52;9.68;;;4.32;;
48034;SDS011;33812;46.480;6.834;2023-03-11T23:35:54;13.53;;;4.77;;
48034;SDS011;33812;46.480;6.834;2023-03-11T23:40:00;9.30;;;4.20;;
48034;SDS011;33812;46.480;6.834;2023-03-11T23:44:02;9.75;;;4.22;;
48034;SDS011;33812;46.480;6.834;2023-03-11T23:48:06;12.48;;;4.63;;
48034;SDS011;33812;46.480;6.834;2023-03-11T23:52:08;10.50;;;4.35;;
48034;SDS011;33812;46.480;6.834;2023-03-11T23:56:11;10.20;;;4.35;;
